sensor_id;sensor_type;location;lat;lon;timestamp;P1;durP1;ratioP1;P2;durP2;ratioP2
27794;SDS011;15176;50.844;4.412;2022-10-16T00:00:27;4.03;;;0.80;;
27794;SDS011;15176;50.844;4.412;2022-10-16T00:02:53;2.75;;;0.98;;
27794;SDS011;15176;50.844;4.412;2022-10-16T00:05:19;2.25;;;0.80;;
27794;SDS011;15176;50.844;4.412;2022-10-16T00:07:44;2.33;;;0.90;;
27794;SDS011;15176;50.844;4.412;2022-10-16T00:10:10;1.45;;;0.60;;
27794;SDS011;15176;50.844;4.412;2022-10-16T00:12:35;3.15;;;0.82;;
27794;SDS011;15176;50.844;4.412;2022-10-16T00:15:02;2.03;;;0.98;;
27794;SDS011;15176;50.844;4.412;2022-10-16T00:17:29;2.33;;;0.90;;
27794;SDS011;15176;50.844;4.412;2022-10-16T00:19:54;4.00;;;0.80;;
27794;SDS011;15176;50.844;4.412;2022-10-16T00:22:20;2.75;;;1.10;;
27794;SDS011;15176;50.844;4.412;2022-10-16T00:24:46;3.33;;;0.95;;
27794;SDS011;15176;50.844;4.412;2022-10-16T00:27:11;4.13;;;0.93;;
27794;SDS011;15176;50.844;4.412;2022-10-16T00:29:37;3.80;;;0.80;;
27794;SDS011;15176;50.844;4.412;2022-10-16T00:32:03;2.33;;;0.80;;
27794;SDS011;15176;50.844;4.412;2022-10-16T00:34:28;3.83;;;0.82;;
27794;SDS011;15176;50.844;4.412;2022-10-16T00:36:54;1.52;;;0.70;;
27794;SDS011;15176;50.844;4.412;2022-10-16T00:39:20;1.92;;;0.73;;
27794;SDS011;15176;50.844;4.412;2022-10-16T00:41:46;4.72;;;0.80;;
27794;SDS011;15176;50.844;4.412;2022-10-16T00:52:55;3.75;;;1.20;;
27794;SDS011;15176;50.844;4.412;2022-10-16T00:55:22;2.47;;;0.90;;
27794;SDS011;15176;50.844;4.412;2022-10-16T00:57:48;2.33;;;0.98;;
27794;SDS011;15176;50.844;4.412;2022-10-16T01:00:17;2.72;;;1.10;;
27794;SDS011;15176;50.844;4.412;2022-10-16T01:02:55;3.08;;;1.02;;
27794;SDS011;15176;50.844;4.412;2022-10-16T01:05:23;2.40;;;0.95;;
27794;SDS011;15176;50.844;4.412;2022-10-16T01:10:43;4.53;;;1.10;;
27794;SDS011;15176;50.844;4.412;2022-10-16T01:13:32;2.97;;;0.90;;
27794;SDS011;15176;50.844;4.412;2022-10-16T01:16:21;3.75;;;0.82;;
27794;SDS011;15176;50.844;4.412;2022-10-16T01:21:32;3.35;;;1.17;;
27794;SDS011;15176;50.844;4.412;2022-10-16T01:32:42;4.82;;;0.95;;
27794;SDS011;15176;50.844;4.412;2022-10-16T01:34:54;2.92;;;0.98;;
27794;SDS011;15176;50.844;4.412;2022-10-16T01:37:33;4.28;;;0.90;;
27794;SDS011;15176;50.844;4.412;2022-10-16T01:40:05;3.53;;;0.98;;
27794;SDS011;15176;50.844;4.412;2022-10-16T01:42:36;3.05;;;0.98;;
27794;SDS011;15176;50.844;4.412;2022-10-16T01:45:07;3.28;;;0.85;;
27794;SDS011;15176;50.844;4.412;2022-10-16T01:47:36;1.95;;;0.80;;
27794;SDS011;15176;50.844;4.412;2022-10-16T01:50:04;3.85;;;0.85;;
27794;SDS011;15176;50.844;4.412;2022-10-16T01:52:32;2.17;;;1.00;;
27794;SDS011;15176;50.844;4.412;2022-10-16T01:55:04;3.13;;;1.10;;
27794;SDS011;15176;50.844;4.412;2022-10-16T01:57:33;3.58;;;1.02;;
27794;SDS011;15176;50.844;4.412;2022-10-16T02:00:05;4.53;;;0.90;;
27794;SDS011;15176;50.844;4.412;2022-10-16T02:02:35;4.88;;;1.17;;
27794;SDS011;15176;50.844;4.412;2022-10-16T02:05:05;1.27;;;0.70;;
27794;SDS011;15176;50.844;4.412;2022-10-16T02:07:46;2.97;;;0.80;;
27794;SDS011;15176;50.844;4.412;2022-10-16T02:10:13;3.00;;;1.10;;
27794;SDS011;15176;50.844;4.412;2022-10-16T02:12:40;4.18;;;1.17;;
27794;SDS011;15176;50.844;4.412;2022-10-16T02:15:11;7.03;;;1.33;;
27794;SDS011;15176;50.844;4.412;2022-10-16T02:17:37;3.13;;;1.10;;
27794;SDS011;15176;50.844;4.412;2022-10-16T02:20:03;2.75;;;1.10;;
27794;SDS011;15176;50.844;4.412;2022-10-16T02:22:34;3.75;;;1.30;;
27794;SDS011;15176;50.844;4.412;2022-10-16T02:27:33;2.13;;;1.00;;
27794;SDS011;15176;50.844;4.412;2022-10-16T02:30:26;3.58;;;1.20;;
27794;SDS011;15176;50.844;4.412;2022-10-16T02:32:52;3.08;;;1.10;;
27794;SDS011;15176;50.844;4.412;2022-10-16T02:35:21;3.03;;;1.00;;
27794;SDS011;15176;50.844;4.412;2022-10-16T02:37:48;3.05;;;0.98;;
27794;SDS011;15176;50.844;4.412;2022-10-16T02:40:15;3.35;;;0.95;;
27794;SDS011;15176;50.844;4.412;2022-10-16T02:42:42;2.03;;;1.02;;
27794;SDS011;15176;50.844;4.412;2022-10-16T02:45:08;3.47;;;1.10;;
27794;SDS011;15176;50.844;4.412;2022-10-16T02:47:35;2.33;;;1.10;;
27794;SDS011;15176;50.844;4.412;2022-10-16T02:50:01;5.35;;;1.33;;
27794;SDS011;15176;50.844;4.412;2022-10-16T02:52:27;3.45;;;1.30;;
27794;SDS011;15176;50.844;4.412;2022-10-16T02:54:53;3.13;;;1.15;;
27794;SDS011;15176;50.844;4.412;2022-10-16T02:57:18;2.53;;;1.00;;
27794;SDS011;15176;50.844;4.412;2022-10-16T02:59:44;2.35;;;1.10;;
27794;SDS011;15176;50.844;4.412;2022-10-16T03:02:10;5.68;;;1.40;;
27794;SDS011;15176;50.844;4.412;2022-10-16T03:04:36;2.10;;;1.20;;
27794;SDS011;15176;50.844;4.412;2022-10-16T03:07:02;3.00;;;1.17;;
27794;SDS011;15176;50.844;4.412;2022-10-16T03:09:27;4.10;;;1.50;;
27794;SDS011;15176;50.844;4.412;2022-10-16T03:11:53;3.40;;;1.25;;
27794;SDS011;15176;50.844;4.412;2022-10-16T03:14:19;8.07;;;1.40;;
27794;SDS011;15176;50.844;4.412;2022-10-16T03:16:44;4.10;;;1.42;;
27794;SDS011;15176;50.844;4.412;2022-10-16T03:19:10;2.15;;;1.00;;
27794;SDS011;15176;50.844;4.412;2022-10-16T03:21:36;6.40;;;1.45;;
27794;SDS011;15176;50.844;4.412;2022-10-16T03:24:01;4.93;;;1.50;;
27794;SDS011;15176;50.844;4.412;2022-10-16T03:26:27;4.72;;;1.50;;
27794;SDS011;15176;50.844;4.412;2022-10-16T03:28:53;3.42;;;1.20;;
27794;SDS011;15176;50.844;4.412;2022-10-16T03:31:19;3.72;;;1.00;;
27794;SDS011;15176;50.844;4.412;2022-10-16T03:33:44;3.20;;;1.13;;
27794;SDS011;15176;50.844;4.412;2022-10-16T03:36:10;5.60;;;1.48;;
27794;SDS011;15176;50.844;4.412;2022-10-16T03:38:36;3.35;;;1.30;;
27794;SDS011;15176;50.844;4.412;2022-10-16T03:41:01;4.55;;;1.30;;
27794;SDS011;15176;50.844;4.412;2022-10-16T03:43:28;5.63;;;1.42;;
27794;SDS011;15176;50.844;4.412;2022-10-16T03:45:54;4.60;;;1.30;;
27794;SDS011;15176;50.844;4.412;2022-10-16T03:48:20;5.20;;;1.10;;
27794;SDS011;15176;50.844;4.412;2022-10-16T03:50:45;5.68;;;1.45;;
27794;SDS011;15176;50.844;4.412;2022-10-16T03:53:13;2.45;;;1.13;;
27794;SDS011;15176;50.844;4.412;2022-10-16T03:55:40;2.45;;;1.10;;
27794;SDS011;15176;50.844;4.412;2022-10-16T03:58:08;4.80;;;1.35;;
27794;SDS011;15176;50.844;4.412;2022-10-16T04:00:34;4.10;;;1.60;;
27794;SDS011;15176;50.844;4.412;2022-10-16T04:03:00;4.13;;;1.25;;
27794;SDS011;15176;50.844;4.412;2022-10-16T04:05:25;4.75;;;1.30;;
27794;SDS011;15176;50.844;4.412;2022-10-16T04:07:51;4.90;;;1.50;;
27794;SDS011;15176;50.844;4.412;2022-10-16T04:10:17;4.03;;;1.30;;
27794;SDS011;15176;50.844;4.412;2022-10-16T04:12:43;6.45;;;1.42;;
27794;SDS011;15176;50.844;4.412;2022-10-16T04:15:09;4.85;;;1.30;;
27794;SDS011;15176;50.844;4.412;2022-10-16T04:17:35;3.85;;;1.17;;
27794;SDS011;15176;50.844;4.412;2022-10-16T04:20:00;3.13;;;1.15;;
27794;SDS011;15176;50.844;4.412;2022-10-16T04:22:26;7.00;;;1.33;;
27794;SDS011;15176;50.844;4.412;2022-10-16T04:24:52;4.03;;;1.13;;
27794;SDS011;15176;50.844;4.412;2022-10-16T04:27:17;5.93;;;1.52;;
27794;SDS011;15176;50.844;4.412;2022-10-16T04:29:43;7.10;;;1.40;;
27794;SDS011;15176;50.844;4.412;2022-10-16T04:32:09;3.58;;;1.40;;
27794;SDS011;15176;50.844;4.412;2022-10-16T04:34:34;4.53;;;1.40;;
27794;SDS011;15176;50.844;4.412;2022-10-16T04:37:00;4.25;;;1.30;;
27794;SDS011;15176;50.844;4.412;2022-10-16T04:39:26;4.63;;;1.50;;
27794;SDS011;15176;50.844;4.412;2022-10-16T04:41:51;4.18;;;1.45;;
27794;SDS011;15176;50.844;4.412;2022-10-16T04:44:17;5.05;;;1.80;;
27794;SDS011;15176;50.844;4.412;2022-10-16T04:46:42;3.88;;;1.20;;
27794;SDS011;15176;50.844;4.412;2022-10-16T04:49:09;3.85;;;1.40;;
27794;SDS011;15176;50.844;4.412;2022-10-16T04:51:34;7.18;;;1.55;;
27794;SDS011;15176;50.844;4.412;2022-10-16T04:54:00;5.25;;;1.50;;
27794;SDS011;15176;50.844;4.412;2022-10-16T04:56:26;5.10;;;1.42;;
27794;SDS011;15176;50.844;4.412;2022-10-16T04:58:53;5.25;;;1.30;;
27794;SDS011;15176;50.844;4.412;2022-10-16T05:01:19;6.13;;;1.35;;
27794;SDS011;15176;50.844;4.412;2022-10-16T05:03:44;6.70;;;1.67;;
27794;SDS011;15176;50.844;4.412;2022-10-16T05:06:10;7.13;;;1.38;;
27794;SDS011;15176;50.844;4.412;2022-10-16T05:08:36;3.47;;;1.17;;
27794;SDS011;15176;50.844;4.412;2022-10-16T05:11:02;4.25;;;1.25;;
27794;SDS011;15176;50.844;4.412;2022-10-16T05:13:27;3.63;;;1.40;;
27794;SDS011;15176;50.844;4.412;2022-10-16T05:15:53;6.40;;;1.40;;
27794;SDS011;15176;50.844;4.412;2022-10-16T05:18:18;2.75;;;0.95;;
27794;SDS011;15176;50.844;4.412;2022-10-16T05:20:44;2.40;;;1.20;;
27794;SDS011;15176;50.844;4.412;2022-10-16T05:23:10;5.65;;;1.40;;
27794;SDS011;15176;50.844;4.412;2022-10-16T05:25:36;2.65;;;1.10;;
27794;SDS011;15176;50.844;4.412;2022-10-16T05:28:02;5.30;;;1.50;;
27794;SDS011;15176;50.844;4.412;2022-10-16T05:30:28;4.60;;;1.23;;
27794;SDS011;15176;50.844;4.412;2022-10-16T05:32:53;6.57;;;1.40;;
27794;SDS011;15176;50.844;4.412;2022-10-16T05:35:19;3.45;;;1.20;;
27794;SDS011;15176;50.844;4.412;2022-10-16T05:37:45;2.05;;;1.05;;
27794;SDS011;15176;50.844;4.412;2022-10-16T05:40:11;3.60;;;1.38;;
27794;SDS011;15176;50.844;4.412;2022-10-16T05:42:38;5.07;;;1.52;;
27794;SDS011;15176;50.844;4.412;2022-10-16T05:45:07;4.57;;;1.20;;
27794;SDS011;15176;50.844;4.412;2022-10-16T05:47:35;5.03;;;1.23;;
27794;SDS011;15176;50.844;4.412;2022-10-16T05:50:01;2.50;;;1.00;;
27794;SDS011;15176;50.844;4.412;2022-10-16T05:52:29;5.88;;;1.80;;
27794;SDS011;15176;50.844;4.412;2022-10-16T05:54:55;4.65;;;1.50;;
27794;SDS011;15176;50.844;4.412;2022-10-16T05:57:20;3.97;;;1.48;;
27794;SDS011;15176;50.844;4.412;2022-10-16T05:59:46;3.22;;;1.40;;
27794;SDS011;15176;50.844;4.412;2022-10-16T06:02:12;3.33;;;1.00;;
27794;SDS011;15176;50.844;4.412;2022-10-16T06:04:39;4.13;;;1.58;;
27794;SDS011;15176;50.844;4.412;2022-10-16T06:07:04;4.68;;;1.60;;
27794;SDS011;15176;50.844;4.412;2022-10-16T06:09:30;4.82;;;1.33;;
27794;SDS011;15176;50.844;4.412;2022-10-16T06:11:56;6.88;;;1.40;;
27794;SDS011;15176;50.844;4.412;2022-10-16T06:14:21;6.00;;;1.75;;
27794;SDS011;15176;50.844;4.412;2022-10-16T06:16:47;5.28;;;1.40;;
27794;SDS011;15176;50.844;4.412;2022-10-16T06:19:13;6.25;;;1.70;;
27794;SDS011;15176;50.844;4.412;2022-10-16T06:21:39;5.32;;;1.50;;
27794;SDS011;15176;50.844;4.412;2022-10-16T06:24:04;4.00;;;1.60;;
27794;SDS011;15176;50.844;4.412;2022-10-16T06:26:30;4.07;;;1.40;;
27794;SDS011;15176;50.844;4.412;2022-10-16T06:28:57;4.28;;;1.35;;
27794;SDS011;15176;50.844;4.412;2022-10-16T06:31:24;5.82;;;1.42;;
27794;SDS011;15176;50.844;4.412;2022-10-16T06:33:52;4.70;;;1.40;;
27794;SDS011;15176;50.844;4.412;2022-10-16T06:36:19;6.20;;;1.42;;
27794;SDS011;15176;50.844;4.412;2022-10-16T06:38:45;5.75;;;1.77;;
27794;SDS011;15176;50.844;4.412;2022-10-16T06:41:12;4.82;;;1.60;;
27794;SDS011;15176;50.844;4.412;2022-10-16T06:43:40;5.65;;;1.55;;
27794;SDS011;15176;50.844;4.412;2022-10-16T06:46:06;6.13;;;1.65;;
27794;SDS011;15176;50.844;4.412;2022-10-16T06:48:34;4.50;;;1.50;;
27794;SDS011;15176;50.844;4.412;2022-10-16T06:51:09;5.72;;;1.45;;
27794;SDS011;15176;50.844;4.412;2022-10-16T06:53:37;7.75;;;1.73;;
27794;SDS011;15176;50.844;4.412;2022-10-16T06:56:08;4.70;;;1.60;;
27794;SDS011;15176;50.844;4.412;2022-10-16T06:58:38;4.10;;;1.50;;
27794;SDS011;15176;50.844;4.412;2022-10-16T07:01:04;4.72;;;1.50;;
27794;SDS011;15176;50.844;4.412;2022-10-16T07:03:30;4.07;;;1.50;;
27794;SDS011;15176;50.844;4.412;2022-10-16T07:05:56;3.05;;;1.30;;
27794;SDS011;15176;50.844;4.412;2022-10-16T07:08:22;6.88;;;1.33;;
27794;SDS011;15176;50.844;4.412;2022-10-16T07:10:47;4.25;;;1.58;;
27794;SDS011;15176;50.844;4.412;2022-10-16T07:13:13;3.63;;;1.42;;
27794;SDS011;15176;50.844;4.412;2022-10-16T07:15:39;4.15;;;1.55;;
27794;SDS011;15176;50.844;4.412;2022-10-16T07:18:05;5.25;;;1.35;;
27794;SDS011;15176;50.844;4.412;2022-10-16T07:20:31;4.53;;;1.50;;
27794;SDS011;15176;50.844;4.412;2022-10-16T07:22:58;6.78;;;1.70;;
27794;SDS011;15176;50.844;4.412;2022-10-16T07:25:23;4.20;;;1.58;;
27794;SDS011;15176;50.844;4.412;2022-10-16T07:27:49;5.53;;;1.38;;
27794;SDS011;15176;50.844;4.412;2022-10-16T07:30:15;6.80;;;1.80;;
27794;SDS011;15176;50.844;4.412;2022-10-16T07:32:40;5.63;;;1.60;;
27794;SDS011;15176;50.844;4.412;2022-10-16T07:35:06;6.65;;;1.58;;
27794;SDS011;15176;50.844;4.412;2022-10-16T07:37:32;7.85;;;1.63;;
27794;SDS011;15176;50.844;4.412;2022-10-16T07:39:58;9.43;;;1.92;;
27794;SDS011;15176;50.844;4.412;2022-10-16T07:42:23;4.00;;;1.50;;
27794;SDS011;15176;50.844;4.412;2022-10-16T07:44:49;5.40;;;1.67;;
27794;SDS011;15176;50.844;4.412;2022-10-16T07:47:15;6.45;;;2.05;;
27794;SDS011;15176;50.844;4.412;2022-10-16T07:49:40;5.43;;;1.50;;
27794;SDS011;15176;50.844;4.412;2022-10-16T07:52:06;9.38;;;2.30;;
27794;SDS011;15176;50.844;4.412;2022-10-16T07:54:32;4.25;;;1.70;;
27794;SDS011;15176;50.844;4.412;2022-10-16T07:56:57;4.15;;;1.50;;
27794;SDS011;15176;50.844;4.412;2022-10-16T07:59:23;5.25;;;1.60;;
27794;SDS011;15176;50.844;4.412;2022-10-16T08:01:49;5.50;;;1.38;;
27794;SDS011;15176;50.844;4.412;2022-10-16T08:04:15;4.50;;;1.60;;
27794;SDS011;15176;50.844;4.412;2022-10-16T08:06:41;5.63;;;1.75;;
27794;SDS011;15176;50.844;4.412;2022-10-16T08:09:07;5.80;;;1.85;;
27794;SDS011;15176;50.844;4.412;2022-10-16T08:11:33;4.50;;;1.50;;
27794;SDS011;15176;50.844;4.412;2022-10-16T08:13:59;3.30;;;1.30;;
27794;SDS011;15176;50.844;4.412;2022-10-16T08:16:25;5.13;;;1.30;;
27794;SDS011;15176;50.844;4.412;2022-10-16T08:18:50;3.33;;;1.27;;
27794;SDS011;15176;50.844;4.412;2022-10-16T08:21:17;4.30;;;1.40;;
27794;SDS011;15176;50.844;4.412;2022-10-16T08:23:45;6.18;;;1.33;;
27794;SDS011;15176;50.844;4.412;2022-10-16T08:26:11;6.45;;;1.60;;
27794;SDS011;15176;50.844;4.412;2022-10-16T08:28:37;3.45;;;1.00;;
27794;SDS011;15176;50.844;4.412;2022-10-16T08:31:10;5.57;;;1.20;;
27794;SDS011;15176;50.844;4.412;2022-10-16T08:33:38;3.55;;;1.17;;
27794;SDS011;15176;50.844;4.412;2022-10-16T08:36:05;4.35;;;1.20;;
27794;SDS011;15176;50.844;4.412;2022-10-16T08:38:31;5.28;;;1.20;;
27794;SDS011;15176;50.844;4.412;2022-10-16T08:41:02;4.47;;;1.25;;
27794;SDS011;15176;50.844;4.412;2022-10-16T08:49:22;5.47;;;1.40;;
27794;SDS011;15176;50.844;4.412;2022-10-16T08:51:49;5.88;;;1.33;;
27794;SDS011;15176;50.844;4.412;2022-10-16T08:54:23;7.57;;;1.38;;
27794;SDS011;15176;50.844;4.412;2022-10-16T08:56:55;5.82;;;1.45;;
27794;SDS011;15176;50.844;4.412;2022-10-16T08:59:22;8.30;;;1.30;;
27794;SDS011;15176;50.844;4.412;2022-10-16T09:01:49;6.43;;;1.40;;
27794;SDS011;15176;50.844;4.412;2022-10-16T09:10:27;3.58;;;1.02;;
27794;SDS011;15176;50.844;4.412;2022-10-16T09:23:36;5.20;;;1.40;;
27794;SDS011;15176;50.844;4.412;2022-10-16T09:26:03;7.75;;;1.23;;
27794;SDS011;15176;50.844;4.412;2022-10-16T09:28:30;4.47;;;1.05;;
27794;SDS011;15176;50.844;4.412;2022-10-16T09:30:55;4.18;;;1.20;;
27794;SDS011;15176;50.844;4.412;2022-10-16T09:33:29;4.60;;;1.10;;
27794;SDS011;15176;50.844;4.412;2022-10-16T09:35:59;4.45;;;1.20;;
27794;SDS011;15176;50.844;4.412;2022-10-16T09:38:30;8.98;;;1.10;;
27794;SDS011;15176;50.844;4.412;2022-10-16T09:40:59;4.93;;;1.40;;
27794;SDS011;15176;50.844;4.412;2022-10-16T09:43:34;3.47;;;1.13;;
27794;SDS011;15176;50.844;4.412;2022-10-16T09:46:06;4.28;;;1.25;;
27794;SDS011;15176;50.844;4.412;2022-10-16T09:51:03;3.40;;;1.00;;
27794;SDS011;15176;50.844;4.412;2022-10-16T09:53:40;6.10;;;1.30;;
27794;SDS011;15176;50.844;4.412;2022-10-16T09:56:09;5.05;;;1.23;;
27794;SDS011;15176;50.844;4.412;2022-10-16T09:58:41;6.72;;;1.20;;
27794;SDS011;15176;50.844;4.412;2022-10-16T10:01:13;7.00;;;1.27;;
27794;SDS011;15176;50.844;4.412;2022-10-16T10:03:41;5.43;;;1.13;;
27794;SDS011;15176;50.844;4.412;2022-10-16T10:06:28;4.30;;;1.30;;
27794;SDS011;15176;50.844;4.412;2022-10-16T10:08:55;4.32;;;1.00;;
27794;SDS011;15176;50.844;4.412;2022-10-16T10:11:36;6.13;;;1.10;;
27794;SDS011;15176;50.844;4.412;2022-10-16T10:19:38;6.50;;;1.20;;
27794;SDS011;15176;50.844;4.412;2022-10-16T10:25:07;3.80;;;1.00;;
27794;SDS011;15176;50.844;4.412;2022-10-16T10:33:28;3.85;;;1.00;;
27794;SDS011;15176;50.844;4.412;2022-10-16T10:47:12;6.00;;;0.98;;
27794;SDS011;15176;50.844;4.412;2022-10-16T10:55:40;4.32;;;0.95;;
27794;SDS011;15176;50.844;4.412;2022-10-16T11:01:08;4.80;;;0.98;;
27794;SDS011;15176;50.844;4.412;2022-10-16T11:06:30;4.03;;;0.88;;
27794;SDS011;15176;50.844;4.412;2022-10-16T11:09:16;4.57;;;0.90;;
27794;SDS011;15176;50.844;4.412;2022-10-16T11:11:52;3.67;;;0.85;;
27794;SDS011;15176;50.844;4.412;2022-10-16T11:14:48;4.15;;;1.17;;
27794;SDS011;15176;50.844;4.412;2022-10-16T11:22:48;3.53;;;0.90;;
27794;SDS011;15176;50.844;4.412;2022-10-16T11:25:35;4.97;;;1.00;;
27794;SDS011;15176;50.844;4.412;2022-10-16T11:28:03;4.15;;;0.80;;
27794;SDS011;15176;50.844;4.412;2022-10-16T11:30:47;4.43;;;0.90;;
27794;SDS011;15176;50.844;4.412;2022-10-16T11:38:51;3.13;;;0.70;;
27794;SDS011;15176;50.844;4.412;2022-10-16T11:41:29;4.85;;;1.00;;
27794;SDS011;15176;50.844;4.412;2022-10-16T11:44:16;6.93;;;0.80;;
27794;SDS011;15176;50.844;4.412;2022-10-16T11:46:46;3.50;;;0.80;;
27794;SDS011;15176;50.844;4.412;2022-10-16T11:49:24;3.42;;;0.77;;
27794;SDS011;15176;50.844;4.412;2022-10-16T11:55:09;3.42;;;1.00;;
27794;SDS011;15176;50.844;4.412;2022-10-16T11:57:40;4.85;;;0.93;;
27794;SDS011;15176;50.844;4.412;2022-10-16T12:00:19;3.20;;;0.80;;
27794;SDS011;15176;50.844;4.412;2022-10-16T12:08:20;3.03;;;0.63;;
27794;SDS011;15176;50.844;4.412;2022-10-16T12:10:46;4.85;;;0.82;;
27794;SDS011;15176;50.844;4.412;2022-10-16T12:13:33;3.97;;;0.90;;
27794;SDS011;15176;50.844;4.412;2022-10-16T12:18:44;4.43;;;0.70;;
27794;SDS011;15176;50.844;4.412;2022-10-16T12:21:12;4.50;;;0.90;;
27794;SDS011;15176;50.844;4.412;2022-10-16T12:23:53;3.35;;;0.60;;
27794;SDS011;15176;50.844;4.412;2022-10-16T12:26:27;1.85;;;0.60;;
27794;SDS011;15176;50.844;4.412;2022-10-16T12:29:43;2.58;;;0.70;;
27794;SDS011;15176;50.844;4.412;2022-10-16T12:31:56;3.17;;;0.60;;
27794;SDS011;15176;50.844;4.412;2022-10-16T12:34:28;2.20;;;0.60;;
27794;SDS011;15176;50.844;4.412;2022-10-16T12:37:08;3.15;;;0.60;;
27794;SDS011;15176;50.844;4.412;2022-10-16T12:39:37;2.30;;;0.70;;
27794;SDS011;15176;50.844;4.412;2022-10-16T12:42:04;4.82;;;0.80;;
27794;SDS011;15176;50.844;4.412;2022-10-16T12:44:50;4.82;;;0.70;;
27794;SDS011;15176;50.844;4.412;2022-10-16T12:47:20;4.90;;;0.90;;
27794;SDS011;15176;50.844;4.412;2022-10-16T12:49:49;3.58;;;0.70;;
27794;SDS011;15176;50.844;4.412;2022-10-16T12:55:01;3.78;;;0.90;;
27794;SDS011;15176;50.844;4.412;2022-10-16T13:00:26;3.05;;;0.70;;
27794;SDS011;15176;50.844;4.412;2022-10-16T13:14:07;6.88;;;2.33;;
27794;SDS011;15176;50.844;4.412;2022-10-16T13:25:00;4.60;;;1.30;;
27794;SDS011;15176;50.844;4.412;2022-10-16T13:30:10;4.28;;;1.42;;
27794;SDS011;15176;50.844;4.412;2022-10-16T13:32:40;6.65;;;1.48;;
27794;SDS011;15176;50.844;4.412;2022-10-16T13:35:26;4.65;;;0.95;;
27794;SDS011;15176;50.844;4.412;2022-10-16T13:38:04;5.45;;;0.90;;
27794;SDS011;15176;50.844;4.412;2022-10-16T13:40:36;2.90;;;0.80;;
27794;SDS011;15176;50.844;4.412;2022-10-16T13:43:01;5.43;;;1.08;;
27794;SDS011;15176;50.844;4.412;2022-10-16T13:45:27;5.00;;;1.00;;
27794;SDS011;15176;50.844;4.412;2022-10-16T13:48:03;8.98;;;1.08;;
27794;SDS011;15176;50.844;4.412;2022-10-16T13:50:30;4.50;;;1.08;;
27794;SDS011;15176;50.844;4.412;2022-10-16T13:53:05;2.97;;;0.90;;
27794;SDS011;15176;50.844;4.412;2022-10-16T13:55:32;2.92;;;0.80;;
27794;SDS011;15176;50.844;4.412;2022-10-16T13:58:05;3.35;;;0.80;;
27794;SDS011;15176;50.844;4.412;2022-10-16T14:00:36;3.50;;;0.80;;
27794;SDS011;15176;50.844;4.412;2022-10-16T14:03:03;1.90;;;0.63;;
27794;SDS011;15176;50.844;4.412;2022-10-16T14:05:31;4.18;;;0.90;;
27794;SDS011;15176;50.844;4.412;2022-10-16T14:07:57;3.85;;;0.80;;
27794;SDS011;15176;50.844;4.412;2022-10-16T14:10:25;4.28;;;1.00;;
27794;SDS011;15176;50.844;4.412;2022-10-16T14:12:55;6.05;;;1.40;;
27794;SDS011;15176;50.844;4.412;2022-10-16T14:15:32;2.90;;;0.90;;
27794;SDS011;15176;50.844;4.412;2022-10-16T14:18:00;5.20;;;0.98;;
27794;SDS011;15176;50.844;4.412;2022-10-16T14:20:27;4.93;;;1.10;;
27794;SDS011;15176;50.844;4.412;2022-10-16T14:23:02;6.10;;;1.20;;
27794;SDS011;15176;50.844;4.412;2022-10-16T14:25:48;3.47;;;1.00;;
27794;SDS011;15176;50.844;4.412;2022-10-16T14:28:16;3.95;;;0.90;;
27794;SDS011;15176;50.844;4.412;2022-10-16T14:30:49;3.95;;;1.10;;
27794;SDS011;15176;50.844;4.412;2022-10-16T14:38:37;4.50;;;0.90;;
27794;SDS011;15176;50.844;4.412;2022-10-16T14:41:05;8.30;;;1.20;;
27794;SDS011;15176;50.844;4.412;2022-10-16T14:43:36;3.90;;;1.00;;
27794;SDS011;15176;50.844;4.412;2022-10-16T14:46:13;4.50;;;1.05;;
27794;SDS011;15176;50.844;4.412;2022-10-16T14:48:45;5.28;;;1.35;;
27794;SDS011;15176;50.844;4.412;2022-10-16T14:51:15;5.72;;;1.35;;
27794;SDS011;15176;50.844;4.412;2022-10-16T14:53:43;3.97;;;1.15;;
27794;SDS011;15176;50.844;4.412;2022-10-16T14:56:19;8.02;;;1.13;;
27794;SDS011;15176;50.844;4.412;2022-10-16T14:58:50;6.60;;;1.25;;
27794;SDS011;15176;50.844;4.412;2022-10-16T15:01:16;6.75;;;1.10;;
27794;SDS011;15176;50.844;4.412;2022-10-16T15:03:43;8.88;;;1.80;;
27794;SDS011;15176;50.844;4.412;2022-10-16T15:06:13;3.15;;;1.08;;
27794;SDS011;15176;50.844;4.412;2022-10-16T15:08:40;5.00;;;1.10;;
27794;SDS011;15176;50.844;4.412;2022-10-16T15:11:09;6.80;;;1.67;;
27794;SDS011;15176;50.844;4.412;2022-10-16T15:13:39;6.35;;;1.35;;
27794;SDS011;15176;50.844;4.412;2022-10-16T15:16:08;6.38;;;1.55;;
27794;SDS011;15176;50.844;4.412;2022-10-16T15:18:38;6.70;;;2.42;;
27794;SDS011;15176;50.844;4.412;2022-10-16T15:21:03;4.80;;;1.30;;
27794;SDS011;15176;50.844;4.412;2022-10-16T15:23:29;4.60;;;1.38;;
27794;SDS011;15176;50.844;4.412;2022-10-16T15:25:55;4.88;;;1.13;;
27794;SDS011;15176;50.844;4.412;2022-10-16T15:28:22;4.32;;;1.40;;
27794;SDS011;15176;50.844;4.412;2022-10-16T15:30:49;3.20;;;1.23;;
27794;SDS011;15176;50.844;4.412;2022-10-16T15:33:20;3.72;;;1.17;;
27794;SDS011;15176;50.844;4.412;2022-10-16T15:35:48;6.10;;;1.27;;
27794;SDS011;15176;50.844;4.412;2022-10-16T15:38:15;7.43;;;1.90;;
27794;SDS011;15176;50.844;4.412;2022-10-16T15:40:43;5.18;;;1.35;;
27794;SDS011;15176;50.844;4.412;2022-10-16T15:43:10;5.07;;;1.20;;
27794;SDS011;15176;50.844;4.412;2022-10-16T15:45:36;5.70;;;1.33;;
27794;SDS011;15176;50.844;4.412;2022-10-16T15:48:03;6.85;;;1.48;;
27794;SDS011;15176;50.844;4.412;2022-10-16T15:50:30;8.88;;;2.45;;
27794;SDS011;15176;50.844;4.412;2022-10-16T15:52:57;8.25;;;1.42;;
27794;SDS011;15176;50.844;4.412;2022-10-16T15:55:23;3.72;;;1.20;;
27794;SDS011;15176;50.844;4.412;2022-10-16T15:57:49;3.28;;;1.15;;
27794;SDS011;15176;50.844;4.412;2022-10-16T16:00:16;3.38;;;1.00;;
27794;SDS011;15176;50.844;4.412;2022-10-16T16:02:43;12.00;;;1.50;;
27794;SDS011;15176;50.844;4.412;2022-10-16T16:05:14;6.28;;;1.52;;
27794;SDS011;15176;50.844;4.412;2022-10-16T16:07:40;2.65;;;1.00;;
27794;SDS011;15176;50.844;4.412;2022-10-16T16:10:07;5.50;;;1.45;;
27794;SDS011;15176;50.844;4.412;2022-10-16T16:12:34;5.63;;;1.48;;
27794;SDS011;15176;50.844;4.412;2022-10-16T16:15:00;3.88;;;1.48;;
27794;SDS011;15176;50.844;4.412;2022-10-16T16:17:27;5.00;;;1.50;;
27794;SDS011;15176;50.844;4.412;2022-10-16T16:19:52;4.60;;;1.77;;
27794;SDS011;15176;50.844;4.412;2022-10-16T16:22:18;4.63;;;1.75;;
27794;SDS011;15176;50.844;4.412;2022-10-16T16:24:44;7.00;;;2.30;;
27794;SDS011;15176;50.844;4.412;2022-10-16T16:27:11;3.83;;;1.55;;
27794;SDS011;15176;50.844;4.412;2022-10-16T16:29:37;7.35;;;2.22;;
27794;SDS011;15176;50.844;4.412;2022-10-16T16:32:03;6.28;;;2.15;;
27794;SDS011;15176;50.844;4.412;2022-10-16T16:34:29;5.93;;;2.10;;
27794;SDS011;15176;50.844;4.412;2022-10-16T16:36:55;7.68;;;3.33;;
27794;SDS011;15176;50.844;4.412;2022-10-16T16:39:21;9.55;;;3.28;;
27794;SDS011;15176;50.844;4.412;2022-10-16T16:41:47;7.35;;;2.60;;
27794;SDS011;15176;50.844;4.412;2022-10-16T16:44:14;7.63;;;2.65;;
27794;SDS011;15176;50.844;4.412;2022-10-16T16:46:41;7.15;;;1.92;;
27794;SDS011;15176;50.844;4.412;2022-10-16T16:49:09;6.30;;;2.80;;
27794;SDS011;15176;50.844;4.412;2022-10-16T16:51:36;7.72;;;3.13;;
27794;SDS011;15176;50.844;4.412;2022-10-16T16:54:02;6.22;;;2.45;;
27794;SDS011;15176;50.844;4.412;2022-10-16T16:56:28;5.47;;;2.03;;
27794;SDS011;15176;50.844;4.412;2022-10-16T16:58:54;8.18;;;3.40;;
27794;SDS011;15176;50.844;4.412;2022-10-16T17:01:21;9.23;;;3.22;;
27794;SDS011;15176;50.844;4.412;2022-10-16T17:03:50;5.63;;;2.65;;
27794;SDS011;15176;50.844;4.412;2022-10-16T17:06:18;4.20;;;1.73;;
27794;SDS011;15176;50.844;4.412;2022-10-16T17:08:48;5.00;;;1.75;;
27794;SDS011;15176;50.844;4.412;2022-10-16T17:11:24;2.88;;;1.20;;
27794;SDS011;15176;50.844;4.412;2022-10-16T17:13:51;8.32;;;2.38;;
27794;SDS011;15176;50.844;4.412;2022-10-16T17:16:19;4.20;;;1.80;;
27794;SDS011;15176;50.844;4.412;2022-10-16T17:18:46;5.93;;;1.80;;